createdAt,value
2022-08-10T00:01:31.717Z,78.40
2022-08-10T00:03:58.732Z,78.40
2022-08-10T00:06:25.598Z,78.50
2022-08-10T00:08:54.614Z,78.60
2022-08-10T00:11:21.696Z,78.80
2022-08-10T00:13:48.656Z,78.80
2022-08-10T00:16:15.633Z,78.90
2022-08-10T00:18:42.770Z,79.00
2022-08-10T00:21:10.504Z,78.90
2022-08-10T00:23:38.447Z,79.30
2022-08-10T00:26:06.516Z,79.50
2022-08-10T00:28:34.128Z,79.40
2022-08-10T00:31:01.172Z,79.00
2022-08-10T00:33:28.262Z,79.70
2022-08-10T00:35:55.442Z,79.60
2022-08-10T00:38:23.031Z,79.90
2022-08-10T00:40:50.244Z,79.90
2022-08-10T00:43:23.389Z,79.70
2022-08-10T00:45:59.274Z,80.30
2022-08-10T00:48:29.565Z,79.80
2022-08-10T00:50:58.606Z,80.30
2022-08-10T00:53:29.779Z,80.40
2022-08-10T00:57:12.542Z,80.50
2022-08-10T00:58:46.354Z,80.30
2022-08-10T01:02:09.377Z,80.90
2022-08-10T01:04:36.777Z,81.00
2022-08-10T01:06:57.939Z,81.90
2022-08-10T01:09:43.751Z,81.70
2022-08-10T01:12:40.856Z,82.10
2022-08-10T01:15:33.811Z,82.20
2022-08-10T01:18:11.730Z,82.60
2022-08-10T01:20:40.488Z,82.90
2022-08-10T01:23:47.782Z,83.20
2022-08-10T01:26:40.694Z,83.10
2022-08-10T01:29:44.700Z,83.30
2022-08-10T01:32:15.082Z,84.20
2022-08-10T01:34:54.340Z,84.10
2022-08-10T01:37:27.366Z,83.90
2022-08-10T01:39:59.080Z,83.70
2022-08-10T01:42:28.937Z,84.00
2022-08-10T01:44:58.074Z,84.00
2022-08-10T01:47:53.543Z,84.20
2022-08-10T01:50:53.316Z,84.00
2022-08-10T01:53:40.149Z,84.00
2022-08-10T01:56:11.345Z,84.00
2022-08-10T01:58:39.607Z,84.10
2022-08-10T02:01:10.129Z,84.30
2022-08-10T02:04:01.343Z,84.60
2022-08-10T02:06:30.205Z,84.90
2022-08-10T02:09:06.683Z,85.00
2022-08-10T02:12:06.705Z,85.00
2022-08-10T02:14:34.515Z,85.00
2022-08-10T02:17:05.472Z,85.00
2022-08-10T02:19:35.913Z,85.40
2022-08-10T02:22:35.016Z,84.90
2022-08-10T02:24:52.746Z,85.00
2022-08-10T02:27:23.100Z,85.00
2022-08-10T02:29:53.432Z,85.00
2022-08-10T02:32:36.143Z,85.20
2022-08-10T02:35:18.609Z,85.30
2022-08-10T02:37:51.888Z,85.30
2022-08-10T02:45:02.708Z,85.20
2022-08-10T02:45:26.864Z,85.20
2022-08-10T02:46:20.877Z,85.40
2022-08-10T02:48:59.882Z,85.30
2022-08-10T02:52:07.258Z,85.40
2022-08-10T02:54:49.383Z,85.30
2022-08-10T02:57:29.721Z,85.40
2022-08-10T03:00:04.261Z,85.70
2022-08-10T03:02:37.212Z,85.90
2022-08-10T03:05:11.432Z,85.80
2022-08-10T03:07:53.407Z,85.90
2022-08-10T03:10:25.214Z,85.90
2022-08-10T03:12:57.469Z,86.10
2022-08-10T03:15:25.822Z,86.00
2022-08-10T03:17:58.157Z,86.30
2022-08-10T03:20:40.419Z,86.50
2022-08-10T03:23:19.589Z,86.90
2022-08-10T03:25:52.642Z,86.80
2022-08-10T03:28:27.692Z,87.10
2022-08-10T03:33:27.677Z,86.70
2022-08-10T03:36:42.184Z,87.60
2022-08-10T03:38:48.617Z,88.00
2022-08-10T03:41:19.259Z,88.10
2022-08-10T03:43:48.948Z,88.40
2022-08-10T03:46:19.990Z,88.70
2022-08-10T03:48:50.331Z,89.00
2022-08-10T03:51:20.074Z,89.20
2022-08-10T03:54:03.773Z,89.80
2022-08-10T03:56:39.207Z,90.10
2022-08-10T03:59:09.997Z,90.40
2022-08-10T04:02:43.821Z,90.40
2022-08-10T04:04:25.960Z,90.60
2022-08-10T04:06:59.118Z,90.90
2022-08-10T04:09:55.418Z,91.20
2022-08-10T04:12:21.512Z,91.30
2022-08-10T04:14:51.274Z,91.40
2022-08-10T04:18:04.390Z,91.50
2022-08-10T04:20:53.456Z,91.70
2022-08-10T04:23:25.688Z,91.90
2022-08-10T04:25:53.370Z,92.00
2022-08-10T04:28:20.886Z,92.20
2022-08-10T04:30:50.386Z,92.20
2022-08-10T04:33:22.714Z,92.20
2022-08-10T04:35:50.667Z,92.40
2022-08-10T04:38:19.312Z,92.50
2022-08-10T04:40:47.057Z,92.70
2022-08-10T04:43:14.391Z,92.70
2022-08-10T04:45:47.463Z,92.80
2022-08-10T04:48:41.229Z,92.80
2022-08-10T04:51:18.966Z,92.80
2022-08-10T04:54:04.738Z,92.80
2022-08-10T04:56:36.649Z,92.80
2022-08-10T04:59:05.173Z,92.80
2022-08-10T05:02:28.810Z,92.70
2022-08-10T05:04:38.372Z,92.50
2022-08-10T05:07:15.758Z,92.40
2022-08-10T05:10:03.583Z,92.40
2022-08-10T05:12:38.488Z,92.30
2022-08-10T05:15:09.309Z,91.90
2022-08-10T05:17:38.345Z,91.90
2022-08-10T05:20:08.239Z,91.70
2022-08-10T05:22:38.196Z,91.60
2022-08-10T05:25:09.513Z,91.70
2022-08-10T05:27:37.261Z,91.30
2022-08-10T05:30:07.252Z,91.40
2022-08-10T05:32:58.586Z,91.20
2022-08-10T05:35:24.299Z,91.10
2022-08-10T05:38:09.994Z,91.10
2022-08-10T05:40:46.142Z,91.10
2022-08-10T05:43:20.622Z,91.10
2022-08-10T05:46:17.626Z,91.00
2022-08-10T05:48:58.221Z,90.80
2022-08-10T05:51:26.086Z,90.60
2022-08-10T05:54:02.337Z,90.60
2022-08-10T05:56:53.405Z,90.10
2022-08-10T06:00:10.885Z,90.10
2022-08-10T06:02:42.847Z,89.60
2022-08-10T06:05:12.548Z,89.10
2022-08-10T06:08:04.825Z,88.80
2022-08-10T06:10:35.454Z,88.70
2022-08-10T06:13:34.336Z,87.50
2022-08-10T06:16:06.774Z,87.40
2022-08-10T06:18:34.013Z,86.70
2022-08-10T06:21:02.200Z,87.20
2022-08-10T06:23:30.779Z,86.60
2022-08-10T06:26:10.762Z,86.10
2022-08-10T06:28:58.299Z,85.70
2022-08-10T06:31:48.984Z,85.00
2022-08-10T06:34:28.126Z,84.70
2022-08-10T06:36:59.648Z,84.40
2022-08-10T06:39:36.093Z,84.50
2022-08-10T06:42:20.702Z,84.30
2022-08-10T06:45:02.349Z,84.10
2022-08-10T06:47:59.776Z,83.90
2022-08-10T06:50:58.272Z,83.70
2022-08-10T06:53:52.081Z,83.70
2022-08-10T06:56:36.186Z,83.10
2022-08-10T06:59:22.803Z,83.20
2022-08-10T07:02:05.158Z,83.10
2022-08-10T07:04:53.061Z,82.70
2022-08-10T07:07:25.092Z,82.20
2022-08-10T07:09:54.703Z,82.50
2022-08-10T07:12:24.110Z,82.60
2022-08-10T07:14:53.090Z,83.10
2022-08-10T07:17:23.431Z,83.40
2022-08-10T07:19:55.605Z,83.00
2022-08-10T07:23:01.204Z,82.10
2022-08-10T07:25:15.740Z,81.00
2022-08-10T07:28:00.539Z,81.10
2022-08-10T07:30:32.046Z,81.10
2022-08-10T07:33:01.761Z,81.30
2022-08-10T07:35:36.373Z,80.60
2022-08-10T07:38:23.075Z,81.30
2022-08-10T07:40:53.260Z,80.40
2022-08-10T07:43:24.815Z,79.80
2022-08-10T07:45:52.410Z,79.80
2022-08-10T07:48:34.359Z,79.90
2022-08-10T07:51:02.976Z,79.80
2022-08-10T07:53:38.666Z,79.10
2022-08-10T07:56:21.298Z,79.30
2022-08-10T07:59:07.874Z,79.20
2022-08-10T08:01:41.246Z,79.10
2022-08-10T08:04:11.695Z,79.00
2022-08-10T08:06:42.748Z,78.70
2022-08-10T08:09:11.211Z,78.50
2022-08-10T08:11:44.339Z,78.30
2022-08-10T08:14:13.247Z,77.90
2022-08-10T08:16:44.596Z,78.00
2022-08-10T08:19:37.429Z,77.60
2022-08-10T08:24:05.069Z,77.50
2022-08-10T08:24:47.827Z,76.80
2022-08-10T08:27:20.230Z,76.60
2022-08-10T08:29:51.325Z,76.30
2022-08-10T08:32:22.562Z,76.20
2022-08-10T08:34:55.148Z,76.20
2022-08-10T08:38:31.760Z,75.60
2022-08-10T08:40:17.388Z,75.10
2022-08-10T08:43:08.583Z,74.80
2022-08-10T08:46:06.937Z,74.60
2022-08-10T08:49:13.810Z,74.30
2022-08-10T08:52:30.206Z,72.90
2022-08-10T08:56:05.698Z,72.90
2022-08-10T08:58:58.619Z,71.90
2022-08-10T09:01:42.385Z,71.10
2022-08-10T09:04:29.451Z,70.60
2022-08-10T09:07:59.947Z,70.60
2022-08-10T09:10:53.562Z,68.60
2022-08-10T09:14:01.096Z,68.20
2022-08-10T09:16:57.555Z,68.30
2022-08-10T09:19:56.009Z,68.20
2022-08-10T09:22:57.622Z,68.20
2022-08-10T09:25:36.931Z,67.60
2022-08-10T09:28:09.701Z,67.60
2022-08-10T09:31:10.873Z,66.40
2022-08-10T09:36:26.997Z,66.00
2022-08-10T09:37:19.723Z,65.10
2022-08-10T09:40:06.620Z,65.10
2022-08-10T09:43:31.917Z,64.60
2022-08-10T09:46:21.571Z,64.00
2022-08-10T09:49:17.277Z,63.50
2022-08-10T09:52:11.992Z,63.20
2022-08-10T09:56:16.968Z,63.90
2022-08-10T09:58:50.639Z,62.90
2022-08-10T10:02:21.748Z,62.60
2022-08-10T10:05:07.530Z,62.80
2022-08-10T10:07:40.144Z,62.30
2022-08-10T10:10:20.471Z,61.80
2022-08-10T10:13:11.048Z,62.10
2022-08-10T10:16:08.493Z,62.50
2022-08-10T10:19:13.096Z,62.50
2022-08-10T10:21:55.696Z,62.20
2022-08-10T10:24:47.997Z,61.20
2022-08-10T10:27:32.431Z,61.40
2022-08-10T10:30:12.469Z,61.30
2022-08-10T10:32:58.042Z,61.60
2022-08-10T10:35:43.930Z,62.00
2022-08-10T10:38:13.574Z,61.80
2022-08-10T10:41:14.349Z,62.10
2022-08-10T10:43:56.917Z,61.40
2022-08-10T10:47:20.534Z,61.70
2022-08-10T10:50:13.662Z,61.50
2022-08-10T10:53:03.916Z,63.10
2022-08-10T10:55:34.971Z,62.70
2022-08-10T10:58:50.940Z,62.10
2022-08-10T11:02:18.213Z,61.80
2022-08-10T11:05:17.857Z,62.40
2022-08-10T11:07:53.408Z,61.20
2022-08-10T11:10:38.555Z,60.70
2022-08-10T11:14:28.849Z,60.90
2022-08-10T11:16:52.891Z,60.80
2022-08-10T11:20:00.296Z,59.80
2022-08-10T11:23:10.652Z,60.00
2022-08-10T11:25:43.156Z,60.30
2022-08-10T11:28:43.239Z,59.10
2022-08-10T11:31:16.374Z,58.90
2022-08-10T11:34:48.216Z,59.60
2022-08-10T11:38:36.981Z,58.50
2022-08-10T11:40:34.958Z,58.90
2022-08-10T11:43:07.487Z,58.50
2022-08-10T11:45:37.182Z,57.60
2022-08-10T11:48:54.227Z,57.80
2022-08-10T11:51:38.970Z,57.20
2022-08-10T11:54:33.596Z,57.00
2022-08-10T11:57:02.865Z,57.20
2022-08-10T11:59:58.822Z,57.40
2022-08-10T12:02:53.301Z,56.90
2022-08-10T12:05:51.629Z,57.10
2022-08-10T12:10:06.980Z,55.90
2022-08-10T12:11:23.868Z,56.10
2022-08-10T12:14:24.486Z,56.80
2022-08-10T12:17:02.618Z,55.80
2022-08-10T12:20:02.653Z,56.30
2022-08-10T12:22:58.330Z,57.10
2022-08-10T12:25:56.321Z,55.90
2022-08-10T12:28:50.507Z,56.60
2022-08-10T12:31:48.294Z,54.50
2022-08-10T12:34:38.009Z,55.10
2022-08-10T12:37:50.944Z,54.70
2022-08-10T12:40:42.021Z,55.50
2022-08-10T12:44:06.914Z,56.00
2022-08-10T12:46:18.948Z,56.20
2022-08-10T12:49:05.865Z,56.10
2022-08-10T12:51:35.643Z,56.10
2022-08-10T12:54:11.718Z,56.20
2022-08-10T12:56:47.945Z,55.80
2022-08-10T12:59:16.921Z,56.40
2022-08-10T13:02:06.715Z,56.00
2022-08-10T13:04:42.827Z,57.00
2022-08-10T13:07:10.998Z,56.70
2022-08-10T13:10:08.195Z,55.30
2022-08-10T13:12:42.487Z,55.20
2022-08-10T13:15:45.501Z,56.10
2022-08-10T13:18:25.183Z,55.30
2022-08-10T13:20:56.659Z,54.80
2022-08-10T13:23:32.991Z,54.70
2022-08-10T13:26:02.396Z,54.50
2022-08-10T13:28:49.713Z,55.00
2022-08-10T13:32:03.395Z,54.20
2022-08-10T13:34:43.945Z,54.60
2022-08-10T13:37:11.240Z,54.30
2022-08-10T13:39:59.089Z,54.00
2022-08-10T13:42:38.418Z,53.10
2022-08-10T13:45:20.297Z,53.20
2022-08-10T13:48:06.945Z,52.40
2022-08-10T13:50:37.565Z,52.00
2022-08-10T13:53:14.835Z,51.90
2022-08-10T13:55:55.448Z,53.00
2022-08-10T13:58:38.435Z,52.00
2022-08-10T14:01:22.489Z,51.70
2022-08-10T14:03:51.852Z,51.30
2022-08-10T14:06:23.018Z,51.10
2022-08-10T14:09:05.737Z,51.80
2022-08-10T14:11:36.471Z,51.10
2022-08-10T14:14:15.241Z,51.90
2022-08-10T14:16:43.921Z,50.80
2022-08-10T14:19:18.023Z,50.50
2022-08-10T14:21:45.186Z,51.30
2022-08-10T14:24:32.394Z,50.40
2022-08-10T14:27:06.293Z,50.60
2022-08-10T14:29:49.789Z,50.30
2022-08-10T14:32:19.694Z,50.60
2022-08-10T14:36:15.599Z,50.80
2022-08-10T14:37:42.078Z,50.60
2022-08-10T14:40:17.006Z,51.70
2022-08-10T14:43:00.019Z,52.40
2022-08-10T14:45:32.971Z,51.90
2022-08-10T14:48:11.752Z,51.70
2022-08-10T14:50:55.470Z,51.50
2022-08-10T14:53:27.356Z,51.00
2022-08-10T14:56:13.988Z,50.40
2022-08-10T14:59:05.342Z,50.00
2022-08-10T15:01:59.774Z,51.20
2022-08-10T15:04:28.972Z,50.00
2022-08-10T15:07:12.179Z,49.60
2022-08-10T15:09:59.810Z,49.00
2022-08-10T15:12:38.803Z,49.90
2022-08-10T15:15:10.714Z,50.20
2022-08-10T15:17:43.153Z,51.50
2022-08-10T15:20:21.272Z,51.60
2022-08-10T15:23:01.175Z,50.60
2022-08-10T15:25:30.534Z,51.30
2022-08-10T15:28:10.834Z,50.60
2022-08-10T15:30:44.735Z,51.50
2022-08-10T15:34:03.098Z,52.00
2022-08-10T15:36:46.334Z,52.40
2022-08-10T15:40:20.970Z,51.60
2022-08-10T15:42:22.753Z,50.70
2022-08-10T15:44:53.964Z,49.30
2022-08-10T15:47:45.575Z,49.00
2022-08-10T15:50:39.845Z,49.00
2022-08-10T15:53:31.431Z,49.40
2022-08-10T15:56:06.330Z,49.30
2022-08-10T15:59:07.877Z,49.30
2022-08-10T16:02:14.811Z,49.00
2022-08-10T16:05:16.946Z,49.10
2022-08-10T16:08:00.494Z,48.40
2022-08-10T16:10:38.540Z,48.90
2022-08-10T16:13:50.446Z,48.80
2022-08-10T16:16:04.114Z,48.40
2022-08-10T16:18:37.856Z,49.00
2022-08-10T16:21:17.085Z,48.50
2022-08-10T16:24:11.377Z,49.20
2022-08-10T16:26:47.260Z,48.20
2022-08-10T16:29:18.782Z,48.20
2022-08-10T16:32:06.658Z,47.80
2022-08-10T16:34:37.919Z,47.80
2022-08-10T16:37:09.881Z,47.40
2022-08-10T16:40:01.145Z,48.20
2022-08-10T16:42:34.454Z,47.70
2022-08-10T16:45:29.737Z,47.90
2022-08-10T16:47:58.018Z,47.00
2022-08-10T16:50:35.169Z,47.40
2022-08-10T16:53:06.399Z,48.50
2022-08-10T16:55:48.359Z,47.30
2022-08-10T16:58:25.552Z,48.00
2022-08-10T17:01:01.492Z,47.10
2022-08-10T17:04:05.762Z,47.60
2022-08-10T17:06:31.458Z,46.60
2022-08-10T17:09:01.984Z,47.80
2022-08-10T17:11:36.992Z,47.20
2022-08-10T17:14:09.430Z,47.30
2022-08-10T17:16:44.300Z,47.60
2022-08-10T17:19:15.933Z,47.40
2022-08-10T17:21:52.375Z,47.60
2022-08-10T17:24:27.048Z,47.70
2022-08-10T17:26:57.951Z,47.30
2022-08-10T17:29:57.185Z,48.00
2022-08-10T17:32:32.670Z,48.00
2022-08-10T17:35:23.113Z,47.80
2022-08-10T17:38:02.257Z,47.80
2022-08-10T17:40:32.905Z,48.30
2022-08-10T17:43:01.526Z,48.50
2022-08-10T17:45:48.487Z,48.70
2022-08-10T17:48:19.362Z,49.70
2022-08-10T17:50:50.548Z,50.20
2022-08-10T17:53:21.440Z,51.30
2022-08-10T17:55:56.031Z,51.80
2022-08-10T17:58:27.549Z,52.60
2022-08-10T18:01:40.478Z,53.10
2022-08-10T18:03:53.168Z,53.60
2022-08-10T18:06:22.678Z,54.10
2022-08-10T18:08:56.074Z,54.10
2022-08-10T18:11:26.335Z,54.40
2022-08-10T18:14:00.068Z,54.50
2022-08-10T18:16:31.961Z,55.00
2022-08-10T18:19:11.674Z,55.40
2022-08-10T18:21:46.386Z,55.30
2022-08-10T18:26:49.350Z,55.20
2022-08-10T18:29:23.505Z,56.30
2022-08-10T18:32:00.626Z,56.00
2022-08-10T18:34:32.179Z,56.20
2022-08-10T18:37:01.067Z,56.50
2022-08-10T18:39:33.362Z,56.10
2022-08-10T18:42:35.149Z,56.40
2022-08-10T18:45:11.083Z,57.70
2022-08-10T18:48:00.069Z,59.00
2022-08-10T18:50:52.243Z,58.80
2022-08-10T18:56:21.178Z,59.20
2022-08-10T18:59:02.887Z,60.50
2022-08-10T19:01:32.843Z,60.20
2022-08-10T19:04:36.061Z,60.40
2022-08-10T19:07:35.579Z,61.80
2022-08-10T19:10:19.180Z,62.20
2022-08-10T19:13:20.422Z,62.00
2022-08-10T19:16:42.603Z,62.40
2022-08-10T19:19:30.579Z,63.70
2022-08-10T19:22:09.206Z,62.00
2022-08-10T19:25:08.154Z,62.70
2022-08-10T19:27:53.192Z,62.50
2022-08-10T19:30:48.489Z,63.00
2022-08-10T19:33:52.553Z,62.80
2022-08-10T19:37:40.460Z,63.30
2022-08-10T19:40:44.614Z,63.40
2022-08-10T19:43:37.322Z,63.80
2022-08-10T19:46:38.272Z,64.60
2022-08-10T19:50:26.091Z,65.00
2022-08-10T19:52:56.584Z,65.10
2022-08-10T19:55:41.351Z,65.00
2022-08-10T19:58:43.027Z,65.70
2022-08-10T20:01:09.987Z,65.60
2022-08-10T20:04:01.932Z,66.20
2022-08-10T20:06:45.118Z,66.80
2022-08-10T20:09:36.002Z,66.60
2022-08-10T20:12:06.897Z,67.00
2022-08-10T20:14:42.918Z,66.90
2022-08-10T20:17:52.053Z,66.60
2022-08-10T20:20:45.015Z,67.70
2022-08-10T20:23:25.281Z,66.80
2022-08-10T20:26:07.159Z,67.40
2022-08-10T20:28:47.474Z,67.50
2022-08-10T20:31:23.385Z,68.00
2022-08-10T20:34:01.688Z,67.70
2022-08-10T20:36:38.732Z,68.10
2022-08-10T20:39:30.121Z,68.10
2022-08-10T20:45:41.535Z,91.90
2022-08-10T20:51:01.322Z,71.60
2022-08-10T20:53:33.051Z,69.80
2022-08-10T20:56:59.432Z,69.70
2022-08-10T20:59:28.941Z,69.60
2022-08-10T21:02:40.536Z,70.10
2022-08-10T21:05:54.977Z,70.60
2022-08-10T21:09:14.938Z,70.80
2022-08-10T21:11:53.649Z,71.20
2022-08-10T21:14:49.641Z,70.90
2022-08-10T21:17:38.387Z,70.60
2022-08-10T21:20:28.899Z,70.10
2022-08-10T21:23:05.298Z,71.50
2022-08-10T21:25:59.184Z,71.50
2022-08-10T21:29:20.384Z,72.20
2022-08-10T21:32:00.155Z,71.00
2022-08-10T21:34:55.172Z,71.50
2022-08-10T21:41:17.533Z,72.00
2022-08-10T21:44:14.952Z,71.80
2022-08-10T21:47:39.532Z,72.20
2022-08-10T21:50:27.665Z,72.80
2022-08-10T21:53:47.161Z,72.60
2022-08-10T21:56:50.359Z,74.10
2022-08-10T22:00:00.684Z,74.30
2022-08-10T22:02:51.057Z,74.20
2022-08-10T22:05:49.219Z,74.70
2022-08-10T22:08:44.411Z,74.50
2022-08-10T22:11:38.527Z,75.00
2022-08-10T22:14:33.680Z,74.70
2022-08-10T22:17:59.757Z,75.20
2022-08-10T22:20:55.846Z,75.40
2022-08-10T22:23:41.352Z,76.50
2022-08-10T22:27:06.811Z,75.50
2022-08-10T22:30:03.971Z,76.50
2022-08-10T22:31:28.595Z,71.00
2022-08-10T22:33:03.041Z,76.90
2022-08-10T22:36:19.025Z,76.80
2022-08-10T22:40:11.235Z,77.30
2022-08-10T22:43:10.615Z,77.80
2022-08-10T22:46:06.608Z,77.40
2022-08-10T22:49:00.961Z,79.30
2022-08-10T22:51:36.961Z,79.00
2022-08-10T22:54:51.810Z,79.00
2022-08-10T22:57:38.194Z,78.90
2022-08-10T23:00:17.109Z,78.40
2022-08-10T23:02:53.667Z,78.50
2022-08-10T23:05:31.584Z,79.00
2022-08-10T23:08:07.410Z,79.20
2022-08-10T23:10:41.665Z,78.30
2022-08-10T23:13:35.787Z,78.70
2022-08-10T23:16:37.153Z,78.50
2022-08-10T23:19:30.236Z,78.60
2022-08-10T23:22:09.516Z,78.10
2022-08-10T23:25:09.261Z,78.50
2022-08-10T23:27:40.901Z,78.50
2022-08-10T23:30:17.458Z,78.80
2022-08-10T23:32:52.899Z,79.00
2022-08-10T23:36:32.725Z,79.60
2022-08-10T23:38:15.380Z,79.30
2022-08-10T23:40:49.446Z,79.40
2022-08-10T23:44:00.872Z,79.60
2022-08-10T23:46:25.437Z,80.00
2022-08-10T23:48:55.528Z,79.80
2022-08-10T23:51:38.772Z,79.70
2022-08-10T23:57:00.884Z,79.10
2022-08-10T23:59:31.882Z,79.60
